sensor_id;sensor_type;location;lat;lon;timestamp;temperature;humidity
782;DHT22;374;52.568;13.402;2023-02-15T00:01:48;5.70;99.90
782;DHT22;374;52.568;13.402;2023-02-15T00:04:17;5.70;99.90
782;DHT22;374;52.568;13.402;2023-02-15T00:06:43;5.70;99.90
782;DHT22;374;52.568;13.402;2023-02-15T00:09:09;5.70;99.90
782;DHT22;374;52.568;13.402;2023-02-15T00:11:35;5.70;99.90
782;DHT22;374;52.568;13.402;2023-02-15T00:14:22;5.60;99.90
782;DHT22;374;52.568;13.402;2023-02-15T00:16:49;5.60;99.90
782;DHT22;374;52.568;13.402;2023-02-15T00:19:17;5.60;99.90
782;DHT22;374;52.568;13.402;2023-02-15T00:21:43;5.60;99.90
782;DHT22;374;52.568;13.402;2023-02-15T00:24:11;5.60;99.90
782;DHT22;374;52.568;13.402;2023-02-15T00:26:39;5.60;99.90
782;DHT22;374;52.568;13.402;2023-02-15T00:29:05;5.60;99.90
782;DHT22;374;52.568;13.402;2023-02-15T00:31:32;5.50;99.90
782;DHT22;374;52.568;13.402;2023-02-15T00:34:04;5.50;99.90
782;DHT22;374;52.568;13.402;2023-02-15T00:36:30;5.50;99.90
782;DHT22;374;52.568;13.402;2023-02-15T00:38:55;5.30;99.90
782;DHT22;374;52.568;13.402;2023-02-15T00:41:21;5.20;99.90
782;DHT22;374;52.568;13.402;2023-02-15T00:43:46;5.10;99.90
782;DHT22;374;52.568;13.402;2023-02-15T00:46:12;5.10;99.90
782;DHT22;374;52.568;13.402;2023-02-15T00:48:37;5.10;99.90
782;DHT22;374;52.568;13.402;2023-02-15T00:51:03;5.10;99.90
782;DHT22;374;52.568;13.402;2023-02-15T00:53:29;5.10;99.90
782;DHT22;374;52.568;13.402;2023-02-15T00:55:55;5.10;99.90
782;DHT22;374;52.568;13.402;2023-02-15T00:58:21;5.10;99.90
782;DHT22;374;52.568;13.402;2023-02-15T01:00:47;5.10;99.90
782;DHT22;374;52.568;13.402;2023-02-15T01:03:13;5.10;99.90
782;DHT22;374;52.568;13.402;2023-02-15T01:05:39;5.10;99.90
782;DHT22;374;52.568;13.402;2023-02-15T01:08:05;5.10;99.90
782;DHT22;374;52.568;13.402;2023-02-15T01:10:33;5.10;99.90
782;DHT22;374;52.568;13.402;2023-02-15T01:12:59;5.10;99.90
782;DHT22;374;52.568;13.402;2023-02-15T01:15:25;5.10;99.90
782;DHT22;374;52.568;13.402;2023-02-15T01:17:51;5.10;99.90
782;DHT22;374;52.568;13.402;2023-02-15T01:20:19;5.10;99.90
782;DHT22;374;52.568;13.402;2023-02-15T01:22:45;5.10;99.90
782;DHT22;374;52.568;13.402;2023-02-15T01:25:10;5.10;99.90
782;DHT22;374;52.568;13.402;2023-02-15T01:27:36;5.00;99.90
782;DHT22;374;52.568;13.402;2023-02-15T01:30:01;5.00;99.90
782;DHT22;374;52.568;13.402;2023-02-15T01:32:30;5.00;99.90
782;DHT22;374;52.568;13.402;2023-02-15T01:34:55;5.00;99.90
782;DHT22;374;52.568;13.402;2023-02-15T01:37:20;5.00;99.90
782;DHT22;374;52.568;13.402;2023-02-15T01:39:46;5.00;99.90
782;DHT22;374;52.568;13.402;2023-02-15T01:42:12;5.00;99.90
782;DHT22;374;52.568;13.402;2023-02-15T01:44:57;5.00;99.90
782;DHT22;374;52.568;13.402;2023-02-15T01:47:48;4.90;99.90
782;DHT22;374;52.568;13.402;2023-02-15T01:50:33;4.90;99.90
782;DHT22;374;52.568;13.402;2023-02-15T01:53:25;4.90;99.90
782;DHT22;374;52.568;13.402;2023-02-15T01:56:14;4.80;99.90
782;DHT22;374;52.568;13.402;2023-02-15T01:58:40;4.80;99.90
782;DHT22;374;52.568;13.402;2023-02-15T02:01:08;4.80;99.90
782;DHT22;374;52.568;13.402;2023-02-15T02:06:21;4.80;99.90
782;DHT22;374;52.568;13.402;2023-02-15T02:08:46;4.70;99.90
782;DHT22;374;52.568;13.402;2023-02-15T02:11:13;4.70;99.90
782;DHT22;374;52.568;13.402;2023-02-15T02:13:40;4.70;99.90
782;DHT22;374;52.568;13.402;2023-02-15T02:16:21;4.60;99.90
782;DHT22;374;52.568;13.402;2023-02-15T02:22:20;4.60;99.90
782;DHT22;374;52.568;13.402;2023-02-15T02:27:41;4.50;99.90
782;DHT22;374;52.568;13.402;2023-02-15T02:36:08;4.50;99.90
782;DHT22;374;52.568;13.402;2023-02-15T02:41:42;4.40;99.90
782;DHT22;374;52.568;13.402;2023-02-15T02:44:33;4.40;99.90
782;DHT22;374;52.568;13.402;2023-02-15T02:47:22;4.40;99.90
782;DHT22;374;52.568;13.402;2023-02-15T02:49:52;4.40;99.90
782;DHT22;374;52.568;13.402;2023-02-15T02:52:40;4.40;99.90
782;DHT22;374;52.568;13.402;2023-02-15T02:55:20;4.30;99.90
782;DHT22;374;52.568;13.402;2023-02-15T03:00:32;4.20;99.90
782;DHT22;374;52.568;13.402;2023-02-15T03:03:04;4.20;99.90
782;DHT22;374;52.568;13.402;2023-02-15T03:05:33;4.20;99.90
782;DHT22;374;52.568;13.402;2023-02-15T03:08:01;4.10;99.90
782;DHT22;374;52.568;13.402;2023-02-15T03:10:31;4.10;99.90
782;DHT22;374;52.568;13.402;2023-02-15T03:12:57;4.10;99.90
782;DHT22;374;52.568;13.402;2023-02-15T03:15:26;4.10;99.90
782;DHT22;374;52.568;13.402;2023-02-15T03:18:16;4.10;99.90
782;DHT22;374;52.568;13.402;2023-02-15T03:20:43;4.10;99.90
782;DHT22;374;52.568;13.402;2023-02-15T03:23:14;4.00;99.90
782;DHT22;374;52.568;13.402;2023-02-15T03:25:44;4.00;99.90
782;DHT22;374;52.568;13.402;2023-02-15T03:28:15;3.90;99.90
782;DHT22;374;52.568;13.402;2023-02-15T03:30:45;3.90;99.90
782;DHT22;374;52.568;13.402;2023-02-15T03:33:13;3.90;99.90
782;DHT22;374;52.568;13.402;2023-02-15T03:38:14;3.90;99.90
782;DHT22;374;52.568;13.402;2023-02-15T03:40:44;3.80;99.90
782;DHT22;374;52.568;13.402;2023-02-15T03:43:53;3.80;99.90
782;DHT22;374;52.568;13.402;2023-02-15T03:46:33;3.80;99.90
782;DHT22;374;52.568;13.402;2023-02-15T03:49:10;3.80;99.90
782;DHT22;374;52.568;13.402;2023-02-15T03:51:40;3.80;99.90
782;DHT22;374;52.568;13.402;2023-02-15T03:57:21;3.70;99.90
782;DHT22;374;52.568;13.402;2023-02-15T04:00:19;3.70;99.90
782;DHT22;374;52.568;13.402;2023-02-15T04:05:42;3.60;99.90
782;DHT22;374;52.568;13.402;2023-02-15T04:08:08;3.60;99.90
782;DHT22;374;52.568;13.402;2023-02-15T04:10:33;3.60;99.90
782;DHT22;374;52.568;13.402;2023-02-15T04:13:21;3.50;99.90
782;DHT22;374;52.568;13.402;2023-02-15T04:15:46;3.50;99.90
782;DHT22;374;52.568;13.402;2023-02-15T04:18:34;3.50;99.90
782;DHT22;374;52.568;13.402;2023-02-15T04:21:20;3.50;99.90
782;DHT22;374;52.568;13.402;2023-02-15T04:24:05;3.50;99.90
782;DHT22;374;52.568;13.402;2023-02-15T04:26:49;3.50;99.90
782;DHT22;374;52.568;13.402;2023-02-15T04:29:18;3.50;99.90
782;DHT22;374;52.568;13.402;2023-02-15T04:31:44;3.40;99.90
782;DHT22;374;52.568;13.402;2023-02-15T04:34:10;3.40;99.90
782;DHT22;374;52.568;13.402;2023-02-15T04:36:36;3.40;99.90
782;DHT22;374;52.568;13.402;2023-02-15T04:39:02;3.40;99.90
782;DHT22;374;52.568;13.402;2023-02-15T04:41:27;3.40;99.90
782;DHT22;374;52.568;13.402;2023-02-15T04:43:53;3.40;99.90
782;DHT22;374;52.568;13.402;2023-02-15T04:46:18;3.40;99.90
782;DHT22;374;52.568;13.402;2023-02-15T04:48:44;3.40;99.90
782;DHT22;374;52.568;13.402;2023-02-15T04:51:10;3.40;99.90
782;DHT22;374;52.568;13.402;2023-02-15T04:53:35;3.40;99.90
782;DHT22;374;52.568;13.402;2023-02-15T04:56:01;3.40;99.90
782;DHT22;374;52.568;13.402;2023-02-15T04:58:27;3.30;99.90
782;DHT22;374;52.568;13.402;2023-02-15T05:00:55;3.30;99.90
782;DHT22;374;52.568;13.402;2023-02-15T05:03:21;3.30;99.90
782;DHT22;374;52.568;13.402;2023-02-15T05:05:46;3.30;99.90
782;DHT22;374;52.568;13.402;2023-02-15T05:08:12;3.30;99.90
782;DHT22;374;52.568;13.402;2023-02-15T05:10:37;3.30;99.90
782;DHT22;374;52.568;13.402;2023-02-15T05:13:03;3.20;99.90
782;DHT22;374;52.568;13.402;2023-02-15T05:15:28;3.20;99.90
782;DHT22;374;52.568;13.402;2023-02-15T05:17:53;3.20;99.90
782;DHT22;374;52.568;13.402;2023-02-15T05:20:19;3.20;99.90
782;DHT22;374;52.568;13.402;2023-02-15T05:22:44;3.20;99.90
782;DHT22;374;52.568;13.402;2023-02-15T05:25:10;3.20;99.90
782;DHT22;374;52.568;13.402;2023-02-15T05:27:54;3.10;99.90
782;DHT22;374;52.568;13.402;2023-02-15T05:30:38;3.10;99.90
782;DHT22;374;52.568;13.402;2023-02-15T05:33:05;3.10;99.90
782;DHT22;374;52.568;13.402;2023-02-15T05:35:31;3.10;99.90
782;DHT22;374;52.568;13.402;2023-02-15T05:37:57;3.10;99.90
782;DHT22;374;52.568;13.402;2023-02-15T05:40:23;3.10;99.90
782;DHT22;374;52.568;13.402;2023-02-15T05:42:48;3.10;99.90
782;DHT22;374;52.568;13.402;2023-02-15T05:45:14;3.10;99.90
782;DHT22;374;52.568;13.402;2023-02-15T05:47:41;3.00;99.90
782;DHT22;374;52.568;13.402;2023-02-15T05:50:07;3.10;99.90
782;DHT22;374;52.568;13.402;2023-02-15T05:52:33;3.00;99.90
782;DHT22;374;52.568;13.402;2023-02-15T05:54:58;3.00;99.90
782;DHT22;374;52.568;13.402;2023-02-15T05:57:25;3.00;99.90
782;DHT22;374;52.568;13.402;2023-02-15T05:59:51;3.00;99.90
782;DHT22;374;52.568;13.402;2023-02-15T06:02:16;2.90;99.90
782;DHT22;374;52.568;13.402;2023-02-15T06:04:42;2.90;99.90
782;DHT22;374;52.568;13.402;2023-02-15T06:07:07;2.90;99.90
782;DHT22;374;52.568;13.402;2023-02-15T06:09:33;2.90;99.90
782;DHT22;374;52.568;13.402;2023-02-15T06:11:58;2.90;99.90
782;DHT22;374;52.568;13.402;2023-02-15T06:14:24;2.90;99.90
782;DHT22;374;52.568;13.402;2023-02-15T06:16:49;2.80;99.90
782;DHT22;374;52.568;13.402;2023-02-15T06:19:15;2.80;99.90
782;DHT22;374;52.568;13.402;2023-02-15T06:21:40;2.80;99.90
782;DHT22;374;52.568;13.402;2023-02-15T06:24:10;2.80;99.90
782;DHT22;374;52.568;13.402;2023-02-15T06:26:38;2.80;99.90
782;DHT22;374;52.568;13.402;2023-02-15T06:29:04;2.80;99.90
782;DHT22;374;52.568;13.402;2023-02-15T06:31:29;2.80;99.90
782;DHT22;374;52.568;13.402;2023-02-15T06:33:55;2.80;99.90
782;DHT22;374;52.568;13.402;2023-02-15T06:36:26;2.80;99.90
782;DHT22;374;52.568;13.402;2023-02-15T06:38:52;2.80;99.90
782;DHT22;374;52.568;13.402;2023-02-15T06:41:18;2.90;99.90
782;DHT22;374;52.568;13.402;2023-02-15T06:43:43;2.80;99.90
782;DHT22;374;52.568;13.402;2023-02-15T06:46:09;2.80;99.90
782;DHT22;374;52.568;13.402;2023-02-15T06:48:34;2.80;99.90
782;DHT22;374;52.568;13.402;2023-02-15T06:50:59;2.80;99.90
782;DHT22;374;52.568;13.402;2023-02-15T06:53:25;2.80;99.90
782;DHT22;374;52.568;13.402;2023-02-15T06:55:50;2.80;99.90
782;DHT22;374;52.568;13.402;2023-02-15T06:58:16;2.80;99.90
782;DHT22;374;52.568;13.402;2023-02-15T07:00:41;2.80;99.90
782;DHT22;374;52.568;13.402;2023-02-15T07:03:07;2.80;99.90
782;DHT22;374;52.568;13.402;2023-02-15T07:05:34;2.80;99.90
782;DHT22;374;52.568;13.402;2023-02-15T07:08:00;2.90;99.90
782;DHT22;374;52.568;13.402;2023-02-15T07:10:26;2.80;99.90
782;DHT22;374;52.568;13.402;2023-02-15T07:12:52;2.90;99.90
782;DHT22;374;52.568;13.402;2023-02-15T07:15:19;2.90;99.90
782;DHT22;374;52.568;13.402;2023-02-15T07:17:46;2.90;99.90
782;DHT22;374;52.568;13.402;2023-02-15T07:20:15;2.90;99.90
782;DHT22;374;52.568;13.402;2023-02-15T07:22:40;2.90;99.90
782;DHT22;374;52.568;13.402;2023-02-15T07:25:08;2.90;99.90
782;DHT22;374;52.568;13.402;2023-02-15T07:27:33;2.90;99.90
782;DHT22;374;52.568;13.402;2023-02-15T07:30:00;2.90;99.90
782;DHT22;374;52.568;13.402;2023-02-15T07:32:30;2.90;99.90
782;DHT22;374;52.568;13.402;2023-02-15T07:34:55;2.90;99.90
782;DHT22;374;52.568;13.402;2023-02-15T07:37:21;2.90;99.90
782;DHT22;374;52.568;13.402;2023-02-15T07:39:47;2.90;99.90
782;DHT22;374;52.568;13.402;2023-02-15T07:42:12;2.90;99.90
782;DHT22;374;52.568;13.402;2023-02-15T07:44:37;2.90;99.90
782;DHT22;374;52.568;13.402;2023-02-15T07:47:03;2.90;99.90
782;DHT22;374;52.568;13.402;2023-02-15T07:49:28;2.90;99.90
782;DHT22;374;52.568;13.402;2023-02-15T07:51:54;2.90;99.90
782;DHT22;374;52.568;13.402;2023-02-15T07:54:20;2.90;99.90
782;DHT22;374;52.568;13.402;2023-02-15T07:56:45;2.90;99.90
782;DHT22;374;52.568;13.402;2023-02-15T07:59:11;2.90;99.90
782;DHT22;374;52.568;13.402;2023-02-15T08:01:39;2.90;99.90
782;DHT22;374;52.568;13.402;2023-02-15T08:04:07;2.90;99.90
782;DHT22;374;52.568;13.402;2023-02-15T08:06:35;2.90;99.90
782;DHT22;374;52.568;13.402;2023-02-15T08:09:03;2.90;99.90
782;DHT22;374;52.568;13.402;2023-02-15T08:11:30;2.90;99.90
782;DHT22;374;52.568;13.402;2023-02-15T08:16:41;3.00;99.90
782;DHT22;374;52.568;13.402;2023-02-15T08:19:09;3.00;99.90
782;DHT22;374;52.568;13.402;2023-02-15T08:21:38;3.00;99.90
782;DHT22;374;52.568;13.402;2023-02-15T08:24:08;3.00;99.90
782;DHT22;374;52.568;13.402;2023-02-15T08:26:35;3.10;99.90
782;DHT22;374;52.568;13.402;2023-02-15T08:29:01;3.00;99.90
782;DHT22;374;52.568;13.402;2023-02-15T08:31:27;3.10;99.90
782;DHT22;374;52.568;13.402;2023-02-15T08:33:54;3.10;99.90
782;DHT22;374;52.568;13.402;2023-02-15T08:36:22;3.10;99.90
782;DHT22;374;52.568;13.402;2023-02-15T08:38:48;3.10;99.90
782;DHT22;374;52.568;13.402;2023-02-15T08:41:16;3.10;99.90
782;DHT22;374;52.568;13.402;2023-02-15T08:43:44;3.10;99.90
782;DHT22;374;52.568;13.402;2023-02-15T08:46:11;3.10;99.90
782;DHT22;374;52.568;13.402;2023-02-15T08:48:36;3.10;99.90
782;DHT22;374;52.568;13.402;2023-02-15T08:51:14;3.10;99.90
782;DHT22;374;52.568;13.402;2023-02-15T08:53:41;3.20;99.90
782;DHT22;374;52.568;13.402;2023-02-15T08:56:08;3.20;99.90
782;DHT22;374;52.568;13.402;2023-02-15T08:58:34;3.20;99.90
782;DHT22;374;52.568;13.402;2023-02-15T09:00:59;3.30;99.90
782;DHT22;374;52.568;13.402;2023-02-15T09:03:27;3.30;99.90
782;DHT22;374;52.568;13.402;2023-02-15T09:05:57;3.30;99.90
782;DHT22;374;52.568;13.402;2023-02-15T09:08:23;3.40;99.90
782;DHT22;374;52.568;13.402;2023-02-15T09:10:48;3.40;99.90
782;DHT22;374;52.568;13.402;2023-02-15T09:13:14;3.40;99.90
782;DHT22;374;52.568;13.402;2023-02-15T09:15:39;3.50;99.90
782;DHT22;374;52.568;13.402;2023-02-15T09:18:05;3.50;99.90
782;DHT22;374;52.568;13.402;2023-02-15T09:20:32;3.60;99.90
782;DHT22;374;52.568;13.402;2023-02-15T09:22:59;3.60;99.90
782;DHT22;374;52.568;13.402;2023-02-15T09:25:26;3.70;99.90
782;DHT22;374;52.568;13.402;2023-02-15T09:27:51;3.70;99.90
782;DHT22;374;52.568;13.402;2023-02-15T09:30:17;3.70;99.90
782;DHT22;374;52.568;13.402;2023-02-15T09:32:42;3.80;99.90
782;DHT22;374;52.568;13.402;2023-02-15T09:35:08;3.90;99.90
782;DHT22;374;52.568;13.402;2023-02-15T09:37:33;3.90;99.90
782;DHT22;374;52.568;13.402;2023-02-15T09:39:59;4.00;99.90
782;DHT22;374;52.568;13.402;2023-02-15T09:45:03;4.10;99.90
782;DHT22;374;52.568;13.402;2023-02-15T09:48:00;4.20;99.90
782;DHT22;374;52.568;13.402;2023-02-15T09:50:57;4.40;99.90
782;DHT22;374;52.568;13.402;2023-02-15T09:53:52;4.50;99.90
782;DHT22;374;52.568;13.402;2023-02-15T09:56:51;4.50;99.90
782;DHT22;374;52.568;13.402;2023-02-15T09:59:33;4.50;99.90
782;DHT22;374;52.568;13.402;2023-02-15T10:02:11;4.50;99.90
782;DHT22;374;52.568;13.402;2023-02-15T10:04:43;4.50;99.90
782;DHT22;374;52.568;13.402;2023-02-15T10:10:17;4.40;99.90
782;DHT22;374;52.568;13.402;2023-02-15T10:19:12;4.50;99.90
782;DHT22;374;52.568;13.402;2023-02-15T10:22:02;4.40;99.90
782;DHT22;374;52.568;13.402;2023-02-15T10:25:05;4.50;99.90
782;DHT22;374;52.568;13.402;2023-02-15T10:27:45;4.40;99.90
782;DHT22;374;52.568;13.402;2023-02-15T10:33:01;4.40;99.90
782;DHT22;374;52.568;13.402;2023-02-15T10:35:43;4.40;99.90
782;DHT22;374;52.568;13.402;2023-02-15T10:38:39;4.40;99.90
782;DHT22;374;52.568;13.402;2023-02-15T10:44:05;4.40;99.90
782;DHT22;374;52.568;13.402;2023-02-15T10:52:42;4.40;99.90
782;DHT22;374;52.568;13.402;2023-02-15T10:55:25;4.50;99.90
782;DHT22;374;52.568;13.402;2023-02-15T10:58:06;4.50;99.90
782;DHT22;374;52.568;13.402;2023-02-15T11:00:44;4.50;99.90
782;DHT22;374;52.568;13.402;2023-02-15T11:03:33;4.50;99.90
782;DHT22;374;52.568;13.402;2023-02-15T11:06:07;4.60;99.90
782;DHT22;374;52.568;13.402;2023-02-15T11:08:44;4.60;99.90
782;DHT22;374;52.568;13.402;2023-02-15T11:11:15;4.60;99.90
782;DHT22;374;52.568;13.402;2023-02-15T11:13:45;4.60;99.90
782;DHT22;374;52.568;13.402;2023-02-15T11:16:16;4.60;99.90
782;DHT22;374;52.568;13.402;2023-02-15T11:18:54;4.60;99.90
782;DHT22;374;52.568;13.402;2023-02-15T11:21:31;4.60;99.90
782;DHT22;374;52.568;13.402;2023-02-15T11:24:13;4.70;99.90
782;DHT22;374;52.568;13.402;2023-02-15T11:26:46;4.70;99.90
782;DHT22;374;52.568;13.402;2023-02-15T11:29:28;4.70;99.90
782;DHT22;374;52.568;13.402;2023-02-15T11:35:05;4.80;99.90
782;DHT22;374;52.568;13.402;2023-02-15T11:37:41;4.80;99.90
782;DHT22;374;52.568;13.402;2023-02-15T11:42:47;4.80;99.90
782;DHT22;374;52.568;13.402;2023-02-15T11:45:25;4.80;99.90
782;DHT22;374;52.568;13.402;2023-02-15T11:47:51;4.90;99.90
782;DHT22;374;52.568;13.402;2023-02-15T11:50:22;4.90;99.90
782;DHT22;374;52.568;13.402;2023-02-15T11:52:54;4.90;99.90
782;DHT22;374;52.568;13.402;2023-02-15T11:55:23;4.90;99.90
782;DHT22;374;52.568;13.402;2023-02-15T12:00:48;5.00;99.90
782;DHT22;374;52.568;13.402;2023-02-15T12:03:27;5.00;99.90
782;DHT22;374;52.568;13.402;2023-02-15T12:06:00;5.00;99.90
782;DHT22;374;52.568;13.402;2023-02-15T12:08:40;5.00;99.90
782;DHT22;374;52.568;13.402;2023-02-15T12:11:14;5.10;99.90
782;DHT22;374;52.568;13.402;2023-02-15T12:14:01;5.10;99.90
782;DHT22;374;52.568;13.402;2023-02-15T12:16:28;5.10;99.90
782;DHT22;374;52.568;13.402;2023-02-15T12:18:59;5.10;99.90
782;DHT22;374;52.568;13.402;2023-02-15T12:21:34;5.20;99.90
782;DHT22;374;52.568;13.402;2023-02-15T12:24:19;5.20;99.90
782;DHT22;374;52.568;13.402;2023-02-15T12:27:01;5.20;99.90
782;DHT22;374;52.568;13.402;2023-02-15T12:29:30;5.20;99.90
782;DHT22;374;52.568;13.402;2023-02-15T12:31:57;5.30;99.90
782;DHT22;374;52.568;13.402;2023-02-15T12:34:37;5.30;99.90
782;DHT22;374;52.568;13.402;2023-02-15T12:37:21;5.30;99.90
782;DHT22;374;52.568;13.402;2023-02-15T12:39:53;5.40;99.90
782;DHT22;374;52.568;13.402;2023-02-15T12:42:20;5.40;99.90
782;DHT22;374;52.568;13.402;2023-02-15T12:44:58;5.40;99.90
782;DHT22;374;52.568;13.402;2023-02-15T12:47:24;5.50;99.90
782;DHT22;374;52.568;13.402;2023-02-15T12:50:07;5.60;99.90
782;DHT22;374;52.568;13.402;2023-02-15T12:52:34;5.60;99.90
782;DHT22;374;52.568;13.402;2023-02-15T12:57:44;5.60;99.90
782;DHT22;374;52.568;13.402;2023-02-15T13:02:47;5.70;99.90
782;DHT22;374;52.568;13.402;2023-02-15T13:05:42;5.70;99.90
782;DHT22;374;52.568;13.402;2023-02-15T13:08:13;5.70;99.90
782;DHT22;374;52.568;13.402;2023-02-15T13:10:51;5.80;99.90
782;DHT22;374;52.568;13.402;2023-02-15T13:13:20;5.80;99.90
782;DHT22;374;52.568;13.402;2023-02-15T13:15:50;5.80;99.90
782;DHT22;374;52.568;13.402;2023-02-15T13:18:21;5.80;99.90
782;DHT22;374;52.568;13.402;2023-02-15T13:20:49;5.80;99.90
782;DHT22;374;52.568;13.402;2023-02-15T13:25:50;5.90;99.90
782;DHT22;374;52.568;13.402;2023-02-15T13:28:18;5.90;99.90
782;DHT22;374;52.568;13.402;2023-02-15T13:30:46;6.00;99.90
782;DHT22;374;52.568;13.402;2023-02-15T13:41:03;6.10;99.90
782;DHT22;374;52.568;13.402;2023-02-15T13:46:28;6.20;99.90
782;DHT22;374;52.568;13.402;2023-02-15T13:49:30;6.20;99.90
782;DHT22;374;52.568;13.402;2023-02-15T13:52:23;6.30;99.90
782;DHT22;374;52.568;13.402;2023-02-15T14:00:56;6.30;99.90
782;DHT22;374;52.568;13.402;2023-02-15T14:03:35;6.40;99.90
782;DHT22;374;52.568;13.402;2023-02-15T14:09:01;6.40;99.90
782;DHT22;374;52.568;13.402;2023-02-15T14:11:44;6.40;99.90
782;DHT22;374;52.568;13.402;2023-02-15T14:17:34;6.40;99.90
782;DHT22;374;52.568;13.402;2023-02-15T14:20:25;6.40;99.90
782;DHT22;374;52.568;13.402;2023-02-15T14:23:18;6.40;99.90
782;DHT22;374;52.568;13.402;2023-02-15T14:26:03;6.40;99.90
782;DHT22;374;52.568;13.402;2023-02-15T14:31:33;6.50;99.90
782;DHT22;374;52.568;13.402;2023-02-15T14:34:00;6.50;99.90
782;DHT22;374;52.568;13.402;2023-02-15T14:36:27;6.60;99.90
782;DHT22;374;52.568;13.402;2023-02-15T14:39:26;6.60;99.90
782;DHT22;374;52.568;13.402;2023-02-15T14:42:34;6.60;99.90
782;DHT22;374;52.568;13.402;2023-02-15T14:45:22;6.70;99.90
782;DHT22;374;52.568;13.402;2023-02-15T14:48:02;6.70;99.90
782;DHT22;374;52.568;13.402;2023-02-15T14:56:14;6.80;99.90
782;DHT22;374;52.568;13.402;2023-02-15T15:01:15;6.90;99.90
782;DHT22;374;52.568;13.402;2023-02-15T15:03:50;6.90;99.90
782;DHT22;374;52.568;13.402;2023-02-15T15:06:32;6.90;99.90
782;DHT22;374;52.568;13.402;2023-02-15T15:09:18;6.90;99.90
782;DHT22;374;52.568;13.402;2023-02-15T15:11:50;6.90;99.90
782;DHT22;374;52.568;13.402;2023-02-15T15:16:58;6.90;99.90
782;DHT22;374;52.568;13.402;2023-02-15T15:22:17;6.90;99.90
782;DHT22;374;52.568;13.402;2023-02-15T15:27:38;6.90;99.90
782;DHT22;374;52.568;13.402;2023-02-15T15:38:27;6.80;99.90
782;DHT22;374;52.568;13.402;2023-02-15T15:43:55;6.70;99.90
782;DHT22;374;52.568;13.402;2023-02-15T15:46:47;6.70;99.90
782;DHT22;374;52.568;13.402;2023-02-15T15:49:19;6.70;99.90
782;DHT22;374;52.568;13.402;2023-02-15T15:51:46;6.70;99.90
782;DHT22;374;52.568;13.402;2023-02-15T15:54:20;6.70;99.90
782;DHT22;374;52.568;13.402;2023-02-15T15:56:51;6.80;99.90
782;DHT22;374;52.568;13.402;2023-02-15T15:59:26;6.80;99.90
782;DHT22;374;52.568;13.402;2023-02-15T16:01:53;6.80;99.90
782;DHT22;374;52.568;13.402;2023-02-15T16:04:29;6.80;99.90
782;DHT22;374;52.568;13.402;2023-02-15T16:06:56;6.80;99.90
782;DHT22;374;52.568;13.402;2023-02-15T16:09:26;6.80;99.90
782;DHT22;374;52.568;13.402;2023-02-15T16:11:56;6.80;99.90
782;DHT22;374;52.568;13.402;2023-02-15T16:14:37;6.70;99.90
782;DHT22;374;52.568;13.402;2023-02-15T16:17:05;6.70;99.90
782;DHT22;374;52.568;13.402;2023-02-15T16:19:40;6.70;99.90
782;DHT22;374;52.568;13.402;2023-02-15T16:22:20;6.70;99.90
782;DHT22;374;52.568;13.402;2023-02-15T16:27:50;6.60;99.90
782;DHT22;374;52.568;13.402;2023-02-15T16:33:09;6.60;99.90
782;DHT22;374;52.568;13.402;2023-02-15T16:35:40;6.60;99.90
782;DHT22;374;52.568;13.402;2023-02-15T16:38:09;6.50;99.90
782;DHT22;374;52.568;13.402;2023-02-15T16:40:43;6.50;99.90
782;DHT22;374;52.568;13.402;2023-02-15T16:43:16;6.50;99.90
782;DHT22;374;52.568;13.402;2023-02-15T16:45:43;6.50;99.90
782;DHT22;374;52.568;13.402;2023-02-15T16:48:16;6.50;99.90
782;DHT22;374;52.568;13.402;2023-02-15T16:50:48;6.50;99.90
782;DHT22;374;52.568;13.402;2023-02-15T16:53:21;6.40;99.90
782;DHT22;374;52.568;13.402;2023-02-15T16:55:50;6.40;99.90
782;DHT22;374;52.568;13.402;2023-02-15T16:58:17;6.40;99.90
782;DHT22;374;52.568;13.402;2023-02-15T17:00:46;6.40;99.90
782;DHT22;374;52.568;13.402;2023-02-15T17:05:45;6.40;99.90
782;DHT22;374;52.568;13.402;2023-02-15T17:08:23;6.40;99.90
782;DHT22;374;52.568;13.402;2023-02-15T17:13:24;6.40;99.90
782;DHT22;374;52.568;13.402;2023-02-15T17:18:27;6.30;99.90
782;DHT22;374;52.568;13.402;2023-02-15T17:20:55;6.30;99.90
782;DHT22;374;52.568;13.402;2023-02-15T17:23:22;6.30;99.90
782;DHT22;374;52.568;13.402;2023-02-15T17:25:49;6.30;99.90
782;DHT22;374;52.568;13.402;2023-02-15T17:28:22;6.30;99.90
782;DHT22;374;52.568;13.402;2023-02-15T17:30:49;6.30;99.90
782;DHT22;374;52.568;13.402;2023-02-15T17:36:04;6.30;99.90
782;DHT22;374;52.568;13.402;2023-02-15T17:38:31;6.30;99.90
782;DHT22;374;52.568;13.402;2023-02-15T17:40:57;6.30;99.90
782;DHT22;374;52.568;13.402;2023-02-15T17:43:26;6.20;99.90
782;DHT22;374;52.568;13.402;2023-02-15T17:45:52;6.20;99.90
782;DHT22;374;52.568;13.402;2023-02-15T17:48:28;6.20;99.90
782;DHT22;374;52.568;13.402;2023-02-15T17:50:56;6.20;99.90
782;DHT22;374;52.568;13.402;2023-02-15T17:53:23;6.20;99.90
782;DHT22;374;52.568;13.402;2023-02-15T17:55:50;6.20;99.90
782;DHT22;374;52.568;13.402;2023-02-15T17:58:17;6.20;99.90
782;DHT22;374;52.568;13.402;2023-02-15T18:00:57;6.20;99.90
782;DHT22;374;52.568;13.402;2023-02-15T18:03:46;6.20;99.90
782;DHT22;374;52.568;13.402;2023-02-15T18:06:31;6.10;99.90
782;DHT22;374;52.568;13.402;2023-02-15T18:09:18;6.10;99.90
782;DHT22;374;52.568;13.402;2023-02-15T18:12:22;6.10;99.90
782;DHT22;374;52.568;13.402;2023-02-15T18:14:49;6.10;99.90
782;DHT22;374;52.568;13.402;2023-02-15T18:17:16;6.10;99.90
782;DHT22;374;52.568;13.402;2023-02-15T18:19:43;6.10;99.90
782;DHT22;374;52.568;13.402;2023-02-15T18:22:11;6.00;99.90
782;DHT22;374;52.568;13.402;2023-02-15T18:24:37;6.00;99.90
782;DHT22;374;52.568;13.402;2023-02-15T18:27:03;6.00;99.90
782;DHT22;374;52.568;13.402;2023-02-15T18:29:29;6.00;99.90
782;DHT22;374;52.568;13.402;2023-02-15T18:31:56;6.00;99.90
782;DHT22;374;52.568;13.402;2023-02-15T18:34:32;6.00;99.90
782;DHT22;374;52.568;13.402;2023-02-15T18:37:00;6.00;99.90
782;DHT22;374;52.568;13.402;2023-02-15T18:39:42;5.90;99.90
782;DHT22;374;52.568;13.402;2023-02-15T18:42:31;5.90;99.90
782;DHT22;374;52.568;13.402;2023-02-15T18:45:18;5.90;99.90
782;DHT22;374;52.568;13.402;2023-02-15T18:47:45;5.90;99.90
782;DHT22;374;52.568;13.402;2023-02-15T18:50:16;5.80;99.90
782;DHT22;374;52.568;13.402;2023-02-15T18:52:44;5.80;99.90
782;DHT22;374;52.568;13.402;2023-02-15T18:55:22;5.80;99.90
782;DHT22;374;52.568;13.402;2023-02-15T18:57:50;5.80;99.90
782;DHT22;374;52.568;13.402;2023-02-15T19:00:22;5.80;99.90
782;DHT22;374;52.568;13.402;2023-02-15T19:02:49;5.80;99.90
782;DHT22;374;52.568;13.402;2023-02-15T19:05:15;5.70;99.90
782;DHT22;374;52.568;13.402;2023-02-15T19:07:43;5.80;99.90
782;DHT22;374;52.568;13.402;2023-02-15T19:10:16;5.70;99.90
782;DHT22;374;52.568;13.402;2023-02-15T19:12:43;5.70;99.90
782;DHT22;374;52.568;13.402;2023-02-15T19:15:21;5.70;99.90
782;DHT22;374;52.568;13.402;2023-02-15T19:17:47;5.60;99.90
782;DHT22;374;52.568;13.402;2023-02-15T19:20:24;5.70;99.90
782;DHT22;374;52.568;13.402;2023-02-15T19:22:51;5.60;99.90
782;DHT22;374;52.568;13.402;2023-02-15T19:25:21;5.60;99.90